Time;durP1;ratioP1;P1;durP2;ratioP2;P2;SDS_P1;SDS_P2;PMS_P1;PMS_P2;Temp;Humidity;BMP_temperature;BMP_pressure;BME280_temperature;BME280_humidity;BME280_pressure;Samples;Min_cycle;Max_cycle;Signal;HPM_P1;HPM_P2
2022/08/01 00:01:17;;;;;;;2.45;1.77;;;;;;;21.91;100.00;98971.84;5036806;28;20200;-79
2022/08/01 00:03:46;;;;;;;3.17;1.70;;;;;;;21.90;100.00;98971.97;5030595;28;20201;-79
2022/08/01 00:06:14;;;;;;;2.20;1.70;;;;;;;21.92;100.00;98969.97;5036590;28;20197;-79
2022/08/01 00:08:42;;;;;;;2.17;1.70;;;;;;;21.82;100.00;98977.44;5031317;28;20276;-79
2022/08/01 00:11:10;;;;;;;3.78;1.70;;;;;;;21.80;100.00;98977.59;5028381;28;20221;-79
2022/08/01 00:13:39;;;;;;;2.90;1.75;;;;;;;21.85;100.00;98980.63;5032598;28;20189;-79
2022/08/01 00:16:09;;;;;;;3.35;1.70;;;;;;;21.88;100.00;98985.66;5026912;28;20272;-79
2022/08/01 00:18:37;;;;;;;3.88;1.70;;;;;;;21.84;100.00;98978.09;5036461;28;20225;-79
2022/08/01 00:21:06;;;;;;;4.50;1.70;;;;;;;21.82;100.00;98978.28;5033635;28;20225;-79
2022/08/01 00:23:34;;;;;;;3.78;1.80;;;;;;;21.89;100.00;98976.53;5033683;28;20281;-79
2022/08/01 00:26:02;;;;;;;2.28;1.80;;;;;;;21.95;100.00;98975.00;5033483;28;20205;-78
2022/08/01 00:28:31;;;;;;;3.22;2.47;;;;;;;21.99;100.00;98971.78;5031338;28;20205;-79
2022/08/01 00:30:59;;;;;;;2.40;2.08;;;;;;;21.87;100.00;98978.56;5031371;28;20221;-79
2022/08/01 00:33:29;;;;;;;2.92;2.10;;;;;;;21.91;100.00;98974.53;4977710;28;20206;-79
2022/08/01 00:35:57;;;;;;;3.03;2.38;;;;;;;21.90;100.00;98971.97;5027479;28;20197;-79
2022/08/01 00:38:26;;;;;;;4.32;2.90;;;;;;;21.75;100.00;98979.97;5031836;28;20201;-79
2022/08/01 00:40:54;;;;;;;5.75;2.53;;;;;;;21.65;100.00;98969.41;5034917;28;20261;-79
2022/08/01 00:43:23;;;;;;;2.78;2.50;;;;;;;21.62;100.00;98975.16;5033838;28;20209;-79
2022/08/01 00:45:51;;;;;;;2.90;2.70;;;;;;;21.54;100.00;98980.56;5031812;28;20267;-79
2022/08/01 00:48:20;;;;;;;5.13;3.45;;;;;;;21.36;100.00;98978.06;5029823;28;20276;-79
2022/08/01 00:50:50;;;;;;;3.28;2.80;;;;;;;21.43;100.00;98980.91;5026530;28;20222;-79
2022/08/01 00:53:18;;;;;;;3.87;2.83;;;;;;;21.43;100.00;98981.75;5034507;28;20649;-79
2022/08/01 00:55:49;;;;;;;3.50;2.72;;;;;;;21.32;100.00;98982.09;5031804;28;20205;-79
2022/08/01 00:58:18;;;;;;;4.05;3.60;;;;;;;21.30;100.00;98977.91;5024329;28;20653;-79
2022/08/01 01:00:46;;;;;;;4.78;3.28;;;;;;;21.30;100.00;98985.97;5025580;28;20202;-79
2022/08/01 01:03:23;;;;;;;4.63;3.60;;;;;;;21.21;100.00;98985.13;5033017;28;20248;-79
2022/08/01 01:06:27;;;;;;;6.00;3.90;;;;;;;21.16;100.00;98984.81;5034363;28;20248;-79
2022/08/01 01:09:13;;;;;;;3.77;3.40;;;;;;;21.11;100.00;98977.22;5029566;28;20186;-79
2022/08/01 01:11:47;;;;;;;4.07;3.70;;;;;;;21.11;100.00;98985.28;5032013;28;20240;-79
2022/08/01 01:14:28;;;;;;;4.57;4.18;;;;;;;21.11;100.00;98984.44;5028681;28;20197;-79
2022/08/01 01:16:59;;;;;;;4.37;3.97;;;;;;;21.10;100.00;98983.63;5029964;28;20201;-79
2022/08/01 01:19:35;;;;;;;4.60;4.20;;;;;;;21.02;100.00;98986.31;5030380;28;20263;-79
2022/08/01 01:22:28;;;;;;;4.55;4.15;;;;;;;21.07;100.00;98980.44;5027660;28;20268;-79
2022/08/01 01:25:34;;;;;;;5.00;4.00;;;;;;;21.00;100.00;98979.41;5030505;28;20233;-79
2022/08/01 01:28:13;;;;;;;4.40;4.00;;;;;;;20.88;100.00;98975.38;5021756;28;20229;-79
2022/08/01 01:33:31;;;;;;;4.97;3.90;;;;;;;20.88;100.00;98995.06;5131415;27;20543;-80
2022/08/01 01:36:04;;;;;;;4.10;3.70;;;;;;;20.62;100.00;98999.75;5131447;27;20198;-80
2022/08/01 01:38:42;;;;;;;4.30;3.90;;;;;;;20.45;100.00;99007.78;5131319;27;20193;-79
2022/08/01 01:41:13;;;;;;;6.43;4.13;;;;;;;20.52;100.00;99010.66;5133700;27;20199;-80
2022/08/01 01:43:43;;;;;;;4.40;4.00;;;;;;;20.27;100.00;99013.28;5132169;27;20203;-80
2022/08/01 01:46:13;;;;;;;4.30;3.90;;;;;;;20.06;100.00;99017.38;5128067;27;20203;-80
2022/08/01 01:48:46;;;;;;;4.57;4.17;;;;;;;20.32;100.00;99015.47;5131107;27;20600;-79
2022/08/01 01:51:16;;;;;;;4.47;4.07;;;;;;;20.37;100.00;99018.53;5130933;27;20222;-80
2022/08/01 01:53:46;;;;;;;4.90;4.30;;;;;;;20.43;100.00;99015.19;5133314;27;20206;-79
2022/08/01 01:56:17;;;;;;;6.57;4.63;;;;;;;20.39;100.00;99018.34;5126115;27;20230;-79
2022/08/01 01:58:49;;;;;;;5.57;4.23;;;;;;;20.47;100.00;99021.09;5129619;27;20274;-79
2022/08/01 02:01:19;;;;;;;5.67;4.20;;;;;;;20.50;100.00;99010.84;5131548;27;20191;-79
2022/08/01 02:04:10;;;;;;;4.90;4.40;;;;;;;20.50;100.00;99010.84;5130667;27;20194;-79
2022/08/01 02:06:39;;;;;;;5.47;4.47;;;;;;;20.30;100.00;99015.63;5130445;28;20202;-79
2022/08/01 02:09:09;;;;;;;5.17;4.37;;;;;;;20.26;100.00;99003.50;5128151;27;20214;-80
2022/08/01 02:11:41;;;;;;;4.90;4.40;;;;;;;20.38;100.00;99014.81;5128437;27;20218;-80
2022/08/01 02:14:30;;;;;;;6.43;4.90;;;;;;;20.41;100.00;99002.88;5130706;27;20678;-80
2022/08/01 02:17:03;;;;;;;6.27;4.60;;;;;;;20.42;100.00;99002.72;5121213;28;20254;-80
2022/08/01 02:19:34;;;;;;;5.20;4.57;;;;;;;20.47;100.00;99000.41;5127746;27;20610;-79
2022/08/01 02:22:09;;;;;;;5.70;5.07;;;;;;;20.54;100.00;99003.25;5129065;27;20195;-80
2022/08/01 02:24:40;;;;;;;5.37;4.87;;;;;;;20.49;100.00;99005.63;5126674;27;20202;-80
2022/08/01 02:27:12;;;;;;;6.00;4.80;;;;;;;20.53;100.00;98998.91;5127719;27;20268;-80
2022/08/01 02:29:46;;;;;;;4.97;4.50;;;;;;;20.47;100.00;99008.50;5130354;27;20194;-80
2022/08/01 02:32:32;;;;;;;5.37;4.87;;;;;;;20.55;100.00;99004.94;5126654;27;20261;-80
2022/08/01 02:35:03;;;;;;;5.50;5.00;;;;;;;20.53;100.00;99005.13;5130384;27;20183;-80
2022/08/01 02:37:37;;;;;;;6.63;4.63;;;;;;;20.57;100.00;99006.50;5128646;27;20195;-80
2022/08/01 02:40:14;;;;;;;5.60;5.10;;;;;;;20.56;100.00;99004.81;5130407;27;20240;-80
2022/08/01 02:42:46;;;;;;;5.50;4.80;;;;;;;20.68;100.00;99013.41;5126817;27;20191;-80
2022/08/01 02:45:14;;;;;;;7.33;5.40;;;;;;;20.74;100.00;99010.03;5115936;28;20206;-80
2022/08/01 02:47:45;;;;;;;5.30;4.80;;;;;;;20.85;100.00;99015.09;5114622;28;20226;-80
2022/08/01 02:50:17;;;;;;;5.23;4.50;;;;;;;20.82;100.00;98998.41;5115106;28;20223;-80
2022/08/01 02:52:49;;;;;;;5.17;4.43;;;;;;;20.75;100.00;99000.97;5116285;28;20211;-80
2022/08/01 02:55:19;;;;;;;5.23;4.50;;;;;;;20.87;100.00;99004.16;5115787;28;20195;-80
2022/08/01 02:57:50;;;;;;;5.00;4.50;;;;;;;20.86;100.00;99006.03;5113678;28;20202;-80
2022/08/01 03:00:28;;;;;;;4.63;4.10;;;;;;;20.83;100.00;99008.19;5115908;28;20255;-80
2022/08/01 03:02:58;;;;;;;5.27;4.60;;;;;;;20.80;100.00;99003.13;5112253;28;20199;-80
2022/08/01 03:05:29;;;;;;;4.60;4.20;;;;;;;20.77;100.00;99006.19;5116138;28;20269;-80
2022/08/01 03:07:59;;;;;;;5.47;4.50;;;;;;;20.81;100.00;99005.66;5113479;28;20191;-80
2022/08/01 03:10:33;;;;;;;5.13;4.60;;;;;;;20.51;100.00;99003.59;5115850;28;20195;-80
2022/08/01 03:13:04;;;;;;;5.63;4.97;;;;;;;20.28;100.00;99014.13;5109505;28;20245;-79
2022/08/01 03:15:37;;;;;;;7.17;5.50;;;;;;;20.36;100.00;99008.75;5112259;28;20199;-79
2022/08/01 03:18:08;;;;;;;5.13;4.73;;;;;;;20.46;100.00;99009.50;5111793;28;20563;-80
2022/08/01 03:20:38;;;;;;;5.83;4.60;;;;;;;20.43;100.00;99003.59;5113341;28;20195;-80
2022/08/01 03:23:08;;;;;;;5.63;4.63;;;;;;;20.38;100.00;99008.59;5118010;27;20203;-79
2022/08/01 03:25:39;;;;;;;6.87;4.90;;;;;;;20.48;100.00;99006.63;5115767;28;20199;-80
2022/08/01 03:28:11;;;;;;;5.20;4.40;;;;;;;20.30;100.00;99009.41;5108418;28;20203;-80
2022/08/01 03:30:41;;;;;;;8.67;4.80;;;;;;;20.40;100.00;99004.72;5115570;28;20194;-79
2022/08/01 03:33:10;;;;;;;6.63;4.57;;;;;;;20.41;100.00;99008.25;5114620;28;20253;-80
2022/08/01 03:35:48;;;;;;;5.00;4.50;;;;;;;20.36;100.00;99005.22;5115575;28;20187;-80
2022/08/01 03:38:21;;;;;;;5.47;3.97;;;;;;;20.38;100.00;99009.44;5115341;27;20671;-80
2022/08/01 03:40:54;;;;;;;5.13;4.40;;;;;;;20.43;100.00;99009.81;5112456;28;20226;-80
2022/08/01 03:43:31;;;;;;;4.53;4.13;;;;;;;20.41;100.00;99005.56;5113721;28;20282;-80
2022/08/01 03:46:07;;;;;;;5.57;4.50;;;;;;;20.38;100.00;99011.28;5113888;28;20235;-80
2022/08/01 03:48:41;;;;;;;5.00;4.50;;;;;;;20.20;100.00;99000.66;5115150;28;20293;-80
2022/08/01 03:51:13;;;;;;;6.67;4.30;;;;;;;20.19;100.00;99010.56;5114772;28;20256;-80
2022/08/01 03:53:45;;;;;;;5.40;4.57;;;;;;;20.21;100.00;99011.22;5092297;28;20269;-80
2022/08/01 03:56:18;;;;;;;5.20;4.50;;;;;;;20.15;100.00;99022.63;5091471;28;20223;-80
2022/08/01 03:58:47;;;;;;;7.27;4.60;;;;;;;20.25;100.00;99025.19;5091213;28;20199;-80
2022/08/01 04:01:18;;;;;;;6.57;4.80;;;;;;;20.33;100.00;99022.53;5092334;28;20195;-80
2022/08/01 04:03:47;;;;;;;5.33;4.50;;;;;;;20.41;100.00;99019.88;5084817;28;20214;-80
2022/08/01 04:06:17;;;;;;;5.87;4.43;;;;;;;20.44;100.00;99022.25;5085481;28;20750;-80
2022/08/01 04:08:55;;;;;;;5.13;4.67;;;;;;;20.32;100.00;99011.94;5085914;28;20203;-79
2022/08/01 04:11:25;;;;;;;5.03;4.53;;;;;;;20.43;100.00;99023.25;5097387;28;20247;-79
2022/08/01 04:13:54;;;;;;;6.53;4.53;;;;;;;20.41;100.00;99021.72;5112937;28;20301;-80
2022/08/01 04:16:22;;;;;;;5.13;4.63;;;;;;;20.26;100.00;99024.19;5114613;28;20223;-79
2022/08/01 04:18:50;;;;;;;5.67;5.00;;;;;;;20.25;100.00;99025.19;5114349;28;20202;-79
2022/08/01 04:21:27;;;;;;;6.10;4.93;;;;;;;20.26;100.00;99026.88;5114438;28;20202;-80
2022/08/01 04:23:59;;;;;;;5.67;4.60;;;;;;;20.27;100.00;99017.81;5114440;28;20201;-78
2022/08/01 04:26:30;;;;;;;8.20;5.20;;;;;;;20.42;100.00;99026.94;5106236;28;20195;-80
2022/08/01 04:29:02;;;;;;;6.87;4.80;;;;;;;20.44;100.00;99029.47;5113848;28;20384;-80
2022/08/01 04:31:32;;;;;;;6.97;5.13;;;;;;;20.44;100.00;99021.41;5114008;28;20250;-79
2022/08/01 04:34:03;;;;;;;6.77;5.23;;;;;;;20.47;100.00;99029.19;5113998;28;20214;-79
2022/08/01 04:36:36;;;;;;;5.53;5.00;;;;;;;20.34;100.00;99039.50;5109239;28;20626;-80
2022/08/01 04:39:06;;;;;;;6.37;5.00;;;;;;;20.50;100.00;99037.75;5114339;28;20191;-80
2022/08/01 04:41:35;;;;;;;5.93;4.80;;;;;;;20.56;100.00;99039.78;5113030;28;20266;-79
2022/08/01 04:44:04;;;;;;;5.90;4.93;;;;;;;20.57;100.00;99046.03;5113995;28;20277;-79
2022/08/01 04:46:34;;;;;;;5.80;4.87;;;;;;;20.58;100.00;99040.47;5112749;28;20190;-80
2022/08/01 04:49:03;;;;;;;5.50;4.53;;;;;;;20.71;100.00;99037.28;5113790;27;20191;-80
2022/08/01 04:51:33;;;;;;;4.63;4.23;;;;;;;20.67;100.00;99054.78;5114038;28;20279;-80
2022/08/01 04:54:01;;;;;;;6.33;4.47;;;;;;;20.72;100.00;99044.34;5113611;28;20466;-80
2022/08/01 04:56:30;;;;;;;5.10;4.00;;;;;;;20.70;100.00;99042.84;5115556;27;20206;-79
2022/08/01 05:01:50;;;;;;;5.00;4.50;;;;;;;20.58;100.00;99047.69;5112246;28;20252;-79
2022/08/01 05:04:20;;;;;;;7.50;4.17;;;;;;;20.56;100.00;99053.25;5113423;28;20198;-79
2022/08/01 05:06:50;;;;;;;5.67;4.33;;;;;;;20.71;100.00;99055.28;5113011;28;20198;-79
2022/08/01 05:09:18;;;;;;;4.67;4.23;;;;;;;20.70;100.00;99056.28;5113648;28;20198;-80
2022/08/01 05:11:47;;;;;;;6.53;4.37;;;;;;;20.68;100.00;99047.56;5111399;27;20223;-80
2022/08/01 05:14:15;;;;;;;6.23;4.40;;;;;;;20.70;100.00;99053.59;5113697;28;20218;-80
2022/08/01 05:16:44;;;;;;;5.30;4.80;;;;;;;20.68;100.00;99061.00;5112192;28;20195;-80
2022/08/01 05:19:12;;;;;;;5.53;3.90;;;;;;;20.85;100.00;99057.34;5113297;28;20183;-80
2022/08/01 05:21:40;;;;;;;6.00;3.90;;;;;;;20.90;100.00;99065.75;5113491;28;20191;-80
2022/08/01 05:24:12;;;;;;;5.27;4.20;;;;;;;20.69;100.00;99062.69;5109090;28;20281;-80
2022/08/01 05:26:40;;;;;;;6.80;4.67;;;;;;;20.80;100.00;99062.38;5112024;28;20274;-80
2022/08/01 05:29:09;;;;;;;6.50;4.80;;;;;;;21.00;100.00;99071.81;5113484;28;20203;-79
2022/08/01 05:31:38;;;;;;;7.33;5.20;;;;;;;21.03;100.00;99068.78;5112093;28;20234;-80
2022/08/01 05:34:08;;;;;;;6.33;5.07;;;;;;;21.03;100.00;99076.88;5092158;28;20359;-79
2022/08/01 05:36:42;;;;;;;6.67;5.13;;;;;;;21.15;100.00;99072.84;5113458;28;20236;-79
2022/08/01 05:39:12;;;;;;;7.03;5.33;;;;;;;21.25;100.00;99078.06;5113290;28;20206;-79
2022/08/01 05:41:40;;;;;;;6.03;5.00;;;;;;;21.24;100.00;99075.56;5109560;28;20221;-79
2022/08/01 05:44:09;;;;;;;8.47;4.60;;;;;;;21.32;100.00;99062.09;5113199;28;20205;-79
2022/08/01 05:46:38;;;;;;;6.67;5.17;;;;;;;21.19;100.00;99078.75;5110152;28;20195;-79
2022/08/01 05:49:07;;;;;;;7.10;4.97;;;;;;;21.26;100.00;99071.72;5112980;28;20199;-79
2022/08/01 05:51:35;;;;;;;7.83;5.40;;;;;;;21.21;100.00;99086.66;5107054;28;20665;-79
2022/08/01 05:54:04;;;;;;;6.13;5.53;;;;;;;21.25;100.00;99070.00;5111906;28;20225;-80
2022/08/01 05:56:33;;;;;;;7.97;5.33;;;;;;;21.21;100.00;99078.56;5076963;28;20717;-80
2022/08/01 05:59:02;;;;;;;6.00;5.40;;;;;;;21.06;100.00;99079.25;5110650;28;20195;-79
2022/08/01 06:01:30;;;;;;;6.07;4.93;;;;;;;21.08;100.00;99079.91;5090682;28;20270;-80
2022/08/01 06:03:59;;;;;;;5.70;5.23;;;;;;;21.19;100.00;99086.81;5113290;28;20302;-79
2022/08/01 06:06:28;;;;;;;6.20;5.70;;;;;;;21.09;100.00;99086.97;5106643;28;20202;-79
2022/08/01 06:08:57;;;;;;;6.37;5.50;;;;;;;21.18;100.00;99078.91;5112876;28;20233;-80
2022/08/01 06:11:26;;;;;;;9.03;5.70;;;;;;;21.20;100.00;99087.66;5112889;28;20199;-79
2022/08/01 06:13:55;;;;;;;6.53;5.93;;;;;;;20.98;100.00;99087.31;5104316;28;20214;-80
2022/08/01 06:16:24;;;;;;;6.43;5.67;;;;;;;20.95;100.00;99084.97;5112923;28;20195;-80
2022/08/01 06:18:52;;;;;;;5.67;5.17;;;;;;;20.96;100.00;99094.72;5046643;28;20197;-79
2022/08/01 06:21:24;;;;;;;6.23;5.70;;;;;;;21.05;100.00;99106.34;5051836;28;20205;-80
2022/08/01 06:23:52;;;;;;;6.03;5.30;;;;;;;21.11;100.00;99105.66;5047901;28;20204;-79
2022/08/01 06:26:22;;;;;;;6.00;5.40;;;;;;;21.01;100.00;99105.81;5048978;28;20201;-80
2022/08/01 06:28:50;;;;;;;5.70;5.10;;;;;;;20.93;100.00;99099.56;5041032;28;20201;-80
2022/08/01 06:31:20;;;;;;;6.43;5.37;;;;;;;21.00;100.00;99108.69;5053696;28;20229;-79
2022/08/01 06:33:50;;;;;;;10.13;5.73;;;;;;;21.00;100.00;99106.00;5053682;28;20193;-80
2022/08/01 06:36:19;;;;;;;6.57;5.90;;;;;;;20.92;100.00;99109.50;5049501;28;20427;-80
2022/08/01 06:38:47;;;;;;;7.73;6.20;;;;;;;20.96;100.00;99110.88;5052924;28;20225;-79
2022/08/01 06:41:15;;;;;;;6.73;6.13;;;;;;;20.95;100.00;99111.06;5053555;28;20213;-80
2022/08/01 06:43:43;;;;;;;7.07;5.97;;;;;;;21.11;100.00;99111.06;5088175;28;20203;-79
2022/08/01 06:46:11;;;;;;;7.80;5.73;;;;;;;21.10;100.00;99112.06;5114864;28;20194;-79
2022/08/01 06:48:42;;;;;;;7.00;6.30;;;;;;;21.08;100.00;99100.63;5116134;28;20278;-79
2022/08/01 06:51:13;;;;;;;7.10;6.40;;;;;;;21.01;100.00;99111.22;5114662;28;20249;-79
2022/08/01 06:53:41;;;;;;;10.00;6.63;;;;;;;21.02;100.00;99115.59;5113610;28;20191;-79
2022/08/01 06:56:11;;;;;;;7.10;6.40;;;;;;;21.04;100.00;99120.84;5113416;28;20301;-79
2022/08/01 06:58:39;;;;;;;6.73;6.13;;;;;;;21.13;100.00;99117.97;5114860;28;20255;-79
2022/08/01 07:01:08;;;;;;;8.10;6.80;;;;;;;21.18;100.00;99116.63;5080710;28;20199;-79
2022/08/01 07:03:38;;;;;;;9.20;6.37;;;;;;;21.34;100.00;99117.53;5114686;28;20191;-79
2022/08/01 07:06:24;;;;;;;8.23;6.20;;;;;;;21.38;100.00;99112.63;5115935;28;20187;-79
2022/08/01 07:08:52;;;;;;;6.60;6.00;;;;;;;21.38;100.00;99112.63;5115455;28;20275;-79
2022/08/01 07:11:21;;;;;;;7.20;5.90;;;;;;;21.31;100.00;99103.53;5113781;28;20206;-79
2022/08/01 07:13:49;;;;;;;9.10;6.23;;;;;;;21.39;100.00;99112.44;5114812;28;20270;-79
2022/08/01 07:16:18;;;;;;;9.53;6.73;;;;;;;21.44;100.00;99101.19;5110329;28;20223;-79
2022/08/01 07:18:46;;;;;;;9.50;6.17;;;;;;;21.51;100.00;99101.31;5111537;28;20663;-79
2022/08/01 07:21:14;;;;;;;7.20;5.87;;;;;;;21.55;100.00;99113.47;5106191;28;20195;-79
2022/08/01 07:24:05;;;;;;;9.60;6.63;;;;;;;21.22;100.00;99118.81;5115774;28;20252;-79
2022/08/01 07:26:41;;;;;;;7.10;6.40;;;;;;;21.33;100.00;99117.69;5107608;28;20199;-79
2022/08/01 07:29:22;;;;;;;7.97;7.17;;;;;;;21.54;100.00;99112.63;5115288;28;20222;-79
2022/08/01 07:31:51;;;;;;;7.03;6.33;;;;;;;21.47;100.00;99108.91;5115053;28;20230;-79
2022/08/01 07:34:20;;;;;;;7.33;6.40;;;;;;;21.38;100.00;99118.00;5112347;28;20198;-79
2022/08/01 07:36:49;;;;;;;7.73;6.83;;;;;;;21.21;100.00;99125.22;5115380;28;20233;-79
2022/08/01 07:39:19;;;;;;;7.10;6.40;;;;;;;21.25;100.00;99121.19;5114775;28;20206;-79
2022/08/01 07:41:47;;;;;;;7.60;6.83;;;;;;;21.60;100.00;99117.31;5113810;28;20206;-79
2022/08/01 07:44:37;;;;;;;8.73;7.13;;;;;;;21.85;100.00;99112.75;5115447;28;20199;-79
2022/08/01 07:47:07;;;;;;;7.43;6.50;;;;;;;21.93;100.00;99122.69;5112702;28;20218;-79
2022/08/01 07:49:35;;;;;;;7.80;7.00;;;;;;;21.76;100.00;99121.88;5114959;28;20226;-78
2022/08/01 07:52:08;;;;;;;7.90;7.20;;;;;;;21.60;100.00;99119.19;5112300;28;20206;-78
2022/08/01 07:54:38;;;;;;;8.37;7.03;;;;;;;21.42;100.00;99131.00;5114812;28;20192;-79
2022/08/01 07:57:06;;;;;;;7.70;6.70;;;;;;;21.76;100.00;99118.34;5113983;28;20226;-79
2022/08/01 07:59:35;;;;;;;8.07;6.30;;;;;;;21.92;100.00;99113.75;5108915;28;20195;-80
2022/08/01 08:02:04;;;;;;;7.53;6.60;;;;;;;21.86;100.00;99116.28;5114701;28;20222;-79
2022/08/01 08:04:32;;;;;;;8.43;7.07;;;;;;;21.90;100.00;99112.22;5114878;28;20187;-80
2022/08/01 08:07:01;;;;;;;7.82;6.80;;;;;;;21.85;100.00;99104.66;5114898;28;20229;-79
2022/08/01 08:09:29;;;;;;;10.27;7.45;;;;;;;22.27;100.00;99109.81;5110006;28;20191;-79
2022/08/01 08:12:07;;;;;;;6.70;6.10;;;;;;;22.80;100.00;99104.69;5108570;28;20276;-80
2022/08/01 08:14:36;;;;;;;7.53;6.15;;;;;;;22.97;100.00;99106.31;5108349;28;20214;-79
2022/08/01 08:17:04;;;;;;;6.80;5.90;;;;;;;23.19;100.00;99101.91;5114328;28;20250;-80
2022/08/01 08:19:33;;;;;;;8.35;6.50;;;;;;;23.08;100.00;99094.22;5106814;28;20219;-80
2022/08/01 08:22:07;;;;;;;7.13;5.97;;;;;;;22.53;100.00;99097.91;5114129;28;20253;-78
2022/08/01 08:24:36;;;;;;;7.05;5.78;;;;;;;22.90;100.00;99099.09;5113406;27;20195;-79
2022/08/01 08:27:15;;;;;;;7.75;5.80;;;;;;;23.26;100.00;99099.31;5113156;28;20236;-79
2022/08/01 08:29:46;;;;;;;7.88;5.90;;;;;;;23.47;100.00;99104.91;5114125;28;20306;-80
2022/08/01 08:32:14;;;;;;;7.95;5.07;;;;;;;23.52;100.00;99093.53;5115546;27;20245;-79
2022/08/01 08:34:43;;;;;;;6.05;5.53;;;;;;;23.54;100.00;99097.72;5116589;27;20215;-79
2022/08/01 08:37:12;;;;;;;6.28;5.43;;;;;;;23.20;100.00;99094.66;5114071;28;20225;-78
2022/08/01 08:39:41;;;;;;;7.22;5.88;;;;;;;23.31;100.00;99099.63;5109343;28;20187;-79
2022/08/01 08:42:10;;;;;;;7.60;6.00;;;;;;;23.50;100.00;99098.28;5111977;28;20190;-79
2022/08/01 08:44:41;;;;;;;7.03;5.88;;;;;;;23.18;100.00;99110.22;5111444;28;20191;-78
2022/08/01 08:47:13;;;;;;;7.32;5.47;;;;;;;23.36;100.00;99102.63;5113964;28;20195;-78
2022/08/01 08:49:46;;;;;;;6.47;5.88;;;;;;;23.44;100.00;99099.84;5113720;28;20194;-79
2022/08/01 08:52:18;;;;;;;7.65;5.90;;;;;;;23.32;100.00;99095.91;5113691;28;20199;-79
2022/08/01 08:54:48;;;;;;;8.23;5.53;;;;;;;24.15;100.00;99089.56;5106134;28;20221;-79
2022/08/01 08:57:16;;;;;;;5.18;4.68;;;;;;;24.50;100.00;99091.50;5110639;28;20249;-79
2022/08/01 08:59:46;;;;;;;4.50;4.10;;;;;;;24.80;100.00;99086.00;5112327;28;20199;-79
2022/08/01 09:02:14;;;;;;;5.25;4.47;;;;;;;25.34;100.00;99085.56;5115990;27;20218;-79
2022/08/01 09:04:43;;;;;;;4.95;4.45;;;;;;;25.35;100.00;99084.53;5113125;28;20649;-79
2022/08/01 09:07:14;;;;;;;4.60;4.20;;;;;;;25.39;100.00;99086.66;5095144;28;20226;-79
2022/08/01 09:09:42;;;;;;;5.20;4.70;;;;;;;25.38;100.00;99086.84;5110065;28;20304;-79
2022/08/01 09:12:10;;;;;;;5.43;4.90;;;;;;;25.11;100.00;99094.75;5112259;28;20191;-79
2022/08/01 09:14:49;;;;;;;5.32;4.82;;;;;;;25.09;100.00;99080.56;5110667;28;20495;-79
2022/08/01 09:17:17;;;;;;;5.20;4.70;;;;;;;25.25;100.00;99084.84;5110509;28;20218;-79
2022/08/01 09:19:47;;;;;;;5.00;4.50;;;;;;;25.70;100.00;99074.63;5111962;28;20218;-79
2022/08/01 09:22:18;;;;;;;6.35;4.40;;;;;;;25.98;100.00;99081.94;5114602;27;20233;-79
2022/08/01 09:24:59;;;;;;;4.72;4.28;;;;;;;25.55;100.00;99073.84;5108603;28;20198;-79
2022/08/01 09:27:28;;;;;;;5.95;4.82;;;;;;;25.42;100.00;99081.88;5110733;28;20315;-79
2022/08/01 09:30:10;;;;;;;5.72;4.82;;;;;;;24.82;100.00;99097.53;5108531;28;20274;-78
2022/08/01 09:32:54;;;;;;;7.38;4.78;;;;;;;24.91;100.00;99082.81;5112934;28;20261;-79
2022/08/01 09:35:28;;;;;;;4.75;4.35;;;;;;;25.42;100.00;99082.72;5112818;28;20206;-79
2022/08/01 09:38:18;;;;;;;5.35;4.80;;;;;;;25.25;100.00;99087.56;5112478;28;20197;-79
2022/08/01 09:40:52;;;;;;;5.88;5.10;;;;;;;25.13;100.00;99082.88;5111951;28;20199;-79
2022/08/01 09:43:22;;;;;;;4.95;4.55;;;;;;;25.39;100.00;99094.81;5112274;28;20256;-78
2022/08/01 09:45:52;;;;;;;5.72;5.00;;;;;;;25.21;100.00;99093.59;5113499;28;20218;-79
2022/08/01 09:48:22;;;;;;;5.90;4.43;;;;;;;24.90;100.00;99083.88;5113456;28;20198;-79
2022/08/01 09:50:57;;;;;;;5.40;4.90;;;;;;;25.23;100.00;99088.81;5113259;28;20190;-79
2022/08/01 09:53:47;;;;;;;5.55;4.82;;;;;;;25.16;100.00;99085.19;5113387;28;20202;-79
2022/08/01 09:56:20;;;;;;;5.80;4.90;;;;;;;25.09;100.00;99091.41;5117346;28;20252;-79
2022/08/01 09:58:53;;;;;;;5.72;4.72;;;;;;;25.01;100.00;99088.78;5111661;28;20206;-80
2022/08/01 10:01:30;;;;;;;6.13;5.53;;;;;;;24.86;100.00;99085.25;5117369;28;20191;-79
2022/08/01 10:04:07;;;;;;;5.80;5.30;;;;;;;24.96;100.00;99087.66;5113600;28;20205;-79
2022/08/01 10:06:38;;;;;;;8.60;5.57;;;;;;;24.43;100.00;99087.03;5117196;28;20191;-79
2022/08/01 10:09:06;;;;;;;7.82;5.88;;;;;;;24.76;100.00;99092.84;5116987;28;20205;-79
2022/08/01 10:11:36;;;;;;;6.45;5.38;;;;;;;24.75;100.00;99086.59;5115041;28;20199;-79
2022/08/01 10:14:08;;;;;;;6.00;5.40;;;;;;;25.20;100.00;99081.91;5116141;27;20191;-79
2022/08/01 10:16:40;;;;;;;6.78;5.53;;;;;;;25.93;100.00;99082.50;5116722;28;20210;-79
2022/08/01 10:19:08;;;;;;;6.47;5.38;;;;;;;26.40;100.00;99078.22;5116603;28;20244;-79
2022/08/01 10:21:43;;;;;;;6.55;5.40;;;;;;;26.50;100.00;99074.06;5108518;28;20223;-80
2022/08/01 10:24:28;;;;;;;5.20;4.70;;;;;;;26.99;100.00;99083.00;5117167;28;20191;-79
2022/08/01 10:27:02;;;;;;;6.35;4.45;;;;;;;27.41;100.00;99079.16;5113004;28;20286;-79
2022/08/01 10:29:39;;;;;;;4.30;3.90;;;;;;;27.44;99.19;99069.72;5119118;27;20230;-79
2022/08/01 10:32:28;;;;;;;7.03;4.88;;;;;;;27.20;100.00;99066.56;5116366;28;20310;-79
2022/08/01 10:34:57;;;;;;;6.07;4.63;;;;;;;27.18;100.00;99082.25;5115089;28;20199;-79
2022/08/01 10:37:25;;;;;;;9.15;4.70;;;;;;;26.67;100.00;99068.28;5116325;27;20261;-79
2022/08/01 10:39:55;;;;;;;4.53;4.10;;;;;;;27.03;100.00;99071.56;5116126;28;20221;-79
2022/08/01 10:42:42;;;;;;;4.97;4.57;;;;;;;26.40;100.00;99076.34;5115334;28;20207;-79
2022/08/01 10:45:12;;;;;;;6.68;5.00;;;;;;;25.63;100.00;99068.28;5115985;28;20191;-79
2022/08/01 10:47:49;;;;;;;5.40;4.80;;;;;;;25.87;100.00;99058.91;5116332;27;20195;-79
2022/08/01 10:50:25;;;;;;;5.45;4.95;;;;;;;26.66;100.00;99051.16;5116308;28;20191;-79
2022/08/01 10:53:13;;;;;;;5.07;4.57;;;;;;;26.66;100.00;99048.44;5115881;28;20209;-79
2022/08/01 10:55:52;;;;;;;5.43;4.93;;;;;;;26.60;100.00;99054.69;5114886;28;20295;-79
2022/08/01 10:58:26;;;;;;;5.70;4.50;;;;;;;26.92;100.00;99046.81;5114814;28;20210;-79
2022/08/01 11:01:18;;;;;;;5.20;4.78;;;;;;;27.61;99.70;99054.66;5116026;28;20199;-79
2022/08/01 11:04:09;;;;;;;4.60;4.20;;;;;;;28.36;93.97;99042.38;5115841;28;20187;-79
2022/08/01 11:07:04;;;;;;;4.45;4.05;;;;;;;28.65;90.56;99040.97;5115704;28;20721;-79
2022/08/01 11:09:40;;;;;;;5.72;4.10;;;;;;;29.14;86.24;99042.16;5116301;28;20207;-80
2022/08/01 11:12:11;;;;;;;6.18;4.47;;;;;;;28.52;84.43;99043.78;5116943;27;20217;-80
2022/08/01 11:15:25;;;;;;;5.00;4.50;;;;;;;27.91;90.66;99038.72;5071753;28;20377;-80
2022/08/01 11:18:02;;;;;;;4.25;3.85;;;;;;;28.62;86.15;99037.88;5066321;28;20772;-79
2022/08/01 11:20:34;;;;;;;4.20;3.60;;;;;;;27.85;86.17;99045.00;5067523;28;20200;-78
2022/08/01 11:23:19;;;;;;;4.70;3.35;;;;;;;28.18;84.12;99032.16;5069619;28;20200;-79
2022/08/01 11:26:09;;;;;;;4.20;3.67;;;;;;;29.02;80.27;99036.59;5072905;28;20196;-80
2022/08/01 11:28:39;;;;;;;4.22;3.90;;;;;;;28.97;78.32;99024.69;5067907;28;20231;-79
2022/08/01 11:31:32;;;;;;;4.50;4.03;;;;;;;27.96;86.36;99033.47;5072946;28;20252;-79
2022/08/01 11:34:05;;;;;;;3.88;3.33;;;;;;;28.98;77.89;99029.09;5115923;28;20661;-79
2022/08/01 11:36:36;;;;;;;4.10;3.70;;;;;;;28.50;79.41;99032.25;5117803;27;20277;-79
2022/08/01 11:39:24;;;;;;;3.65;3.35;;;;;;;27.47;82.11;99034.75;5115456;28;20199;-79
2022/08/01 11:41:54;;;;;;;4.50;3.40;;;;;;;28.01;81.18;99021.94;5109067;28;20279;-80
2022/08/01 11:44:27;;;;;;;5.43;3.60;;;;;;;27.87;86.82;99040.19;5115244;28;20195;-80
2022/08/01 11:47:03;;;;;;;6.72;4.60;;;;;;;27.54;89.41;99038.31;5114860;28;20198;-79
2022/08/01 11:49:59;;;;;;;4.20;3.88;;;;;;;27.46;92.39;99030.38;5114758;28;20209;-80
2022/08/01 11:52:32;;;;;;;6.00;3.75;;;;;;;27.81;90.87;99032.88;5114016;28;20229;-79
2022/08/01 11:55:07;;;;;;;3.60;3.30;;;;;;;27.89;89.44;99032.63;5113343;28;20198;-79
2022/08/01 11:57:38;;;;;;;5.82;3.47;;;;;;;27.88;87.18;99033.69;5109542;28;20225;-79